Great — TCYV6 — position and weather

sailwx.info

Track history (hours):
 
Tides and Currents Weather Stations Pressure Air Temp Water Temp Dewpoint Dewpoint Depression Visibility Wind Speed Wind Dir Waves Ship Positions

Great

Last reported at 2017-Jan-15 14:33 UTC. Time now 2017-Jan-16 21:53 UTC.
Position N 39°34' E 001°38'.

Length 186 m; draft 10.5 m.

Type: Cargo ship. MMSI: 271042241.

Date/timePositionNaut miles runAvg speedWind from/ knotsBaromVisibWave heightAir tempDewpointWater temp
2017-Jan-15 14:33N 39°34' E 001°38'9 9.0
2017-Jan-15 13:33N 39°28' E 001°47'9 8.7
2017-Jan-15 12:33N 39°24' E 001°57'9 8.9
2017-Jan-15 11:33N 39°20' E 002°07'9 9.2
2017-Jan-15 10:33N 39°16' E 002°18'9 9.2
2017-Jan-15 09:33N 39°11' E 002°28'9 9.4
2017-Jan-15 08:33N 39°08' E 002°40'9 9.4
2017-Jan-15 07:33N 39°04' E 002°50'11 9.5
2017-Jan-15 06:27N 38°58' E 003°02'9 9.7
2017-Jan-15 05:33N 38°53' E 003°11'  
2017-Jan-12 18:14N 36°52' E 013°35'710.6
2017-Jan-12 17:33N 36°50' E 013°44'1111.0
2017-Jan-12 16:34N 36°46' E 013°57'1111.0
2017-Jan-12 15:33N 36°43' E 014°10'1110.9
2017-Jan-12 14:33N 36°40' E 014°23'1111.0
2017-Jan-12 13:33N 36°36' E 014°36'  
2017-Jan-10 07:33N 37°13' E 024°59'1110.6
2017-Jan-10 06:34N 37°16' E 025°12'1110.7
2017-Jan-10 05:34N 37°17' E 025°25'1510.9
2017-Jan-10 04:12N 37°17' E 025°44'710.8
2017-Jan-10 03:34N 37°17' E 025°52'  
Track history (hours):
 
Tides and Currents Weather Stations Pressure Air Temp Water Temp Dewpoint Dewpoint Depression Visibility Wind Speed Wind Dir Waves Ship Positions

Great

Last reported at 2017-Jan-15 14:33 UTC. Time now 2017-Jan-16 21:53 UTC.
Position N 39°34' E 001°38'.

Length 186 m; draft 10.5 m.

Type: Cargo ship. MMSI: 271042241.

Date/timePositionNaut miles runAvg speedWind from/ knotsBaromVisibWave heightAir tempDewpointWater temp
2017-Jan-15 14:33N 39°34' E 001°38'9 9.0
2017-Jan-15 13:33N 39°28' E 001°47'9 8.7
2017-Jan-15 12:33N 39°24' E 001°57'9 8.9
2017-Jan-15 11:33N 39°20' E 002°07'9 9.2
2017-Jan-15 10:33N 39°16' E 002°18'9 9.2
2017-Jan-15 09:33N 39°11' E 002°28'9 9.4
2017-Jan-15 08:33N 39°08' E 002°40'9 9.4
2017-Jan-15 07:33N 39°04' E 002°50'11 9.5
2017-Jan-15 06:27N 38°58' E 003°02'9 9.7
2017-Jan-15 05:33N 38°53' E 003°11'  
2017-Jan-12 18:14N 36°52' E 013°35'710.6
2017-Jan-12 17:33N 36°50' E 013°44'1111.0
2017-Jan-12 16:34N 36°46' E 013°57'1111.0
2017-Jan-12 15:33N 36°43' E 014°10'1110.9
2017-Jan-12 14:33N 36°40' E 014°23'1111.0
2017-Jan-12 13:33N 36°36' E 014°36'  
2017-Jan-10 07:33N 37°13' E 024°59'1110.6
2017-Jan-10 06:34N 37°16' E 025°12'1110.7
2017-Jan-10 05:34N 37°17' E 025°25'1510.9
2017-Jan-10 04:12N 37°17' E 025°44'710.8
2017-Jan-10 03:34N 37°17' E 025°52'  

Dump ship's entire track history